sensor_id;sensor_type;location;lat;lon;timestamp;P1;durP1;ratioP1;P2;durP2;ratioP2
50417;SDS011;36346;48.280;14.292;2023-05-01T00:02:23;14.31;;;14.22;;
50417;SDS011;36346;48.280;14.292;2023-05-01T00:04:51;14.30;;;14.30;;
50417;SDS011;36346;48.280;14.292;2023-05-01T00:07:19;14.44;;;14.44;;
50417;SDS011;36346;48.280;14.292;2023-05-01T00:09:47;14.94;;;14.94;;
50417;SDS011;36346;48.280;14.292;2023-05-01T00:12:15;14.59;;;14.59;;
50417;SDS011;36346;48.280;14.292;2023-05-01T00:14:43;14.53;;;14.49;;
50417;SDS011;36346;48.280;14.292;2023-05-01T00:17:11;14.43;;;14.42;;
50417;SDS011;36346;48.280;14.292;2023-05-01T00:19:39;15.66;;;15.66;;
50417;SDS011;36346;48.280;14.292;2023-05-01T00:22:07;14.83;;;14.83;;
50417;SDS011;36346;48.280;14.292;2023-05-01T00:24:36;15.01;;;15.01;;
50417;SDS011;36346;48.280;14.292;2023-05-01T00:27:03;14.70;;;14.70;;
50417;SDS011;36346;48.280;14.292;2023-05-01T00:29:32;14.52;;;14.52;;
50417;SDS011;36346;48.280;14.292;2023-05-01T00:32:00;14.78;;;14.78;;
50417;SDS011;36346;48.280;14.292;2023-05-01T00:34:28;14.39;;;14.39;;
50417;SDS011;36346;48.280;14.292;2023-05-01T00:36:56;14.37;;;14.37;;
50417;SDS011;36346;48.280;14.292;2023-05-01T00:39:25;13.92;;;13.92;;
50417;SDS011;36346;48.280;14.292;2023-05-01T00:41:53;15.24;;;15.24;;
50417;SDS011;36346;48.280;14.292;2023-05-01T00:44:22;15.21;;;15.21;;
50417;SDS011;36346;48.280;14.292;2023-05-01T00:46:50;16.16;;;16.15;;
50417;SDS011;36346;48.280;14.292;2023-05-01T00:49:18;14.64;;;14.59;;
50417;SDS011;36346;48.280;14.292;2023-05-01T00:51:47;13.78;;;13.77;;
50417;SDS011;36346;48.280;14.292;2023-05-01T00:54:19;16.32;;;16.32;;
50417;SDS011;36346;48.280;14.292;2023-05-01T00:56:50;18.28;;;18.28;;
50417;SDS011;36346;48.280;14.292;2023-05-01T00:59:19;17.93;;;17.92;;
50417;SDS011;36346;48.280;14.292;2023-05-01T01:01:47;18.12;;;18.10;;
50417;SDS011;36346;48.280;14.292;2023-05-01T01:04:15;17.61;;;17.60;;
50417;SDS011;36346;48.280;14.292;2023-05-01T01:09:31;18.25;;;18.24;;
50417;SDS011;36346;48.280;14.292;2023-05-01T01:12:15;17.81;;;17.78;;
50417;SDS011;36346;48.280;14.292;2023-05-01T01:14:57;17.05;;;17.05;;
50417;SDS011;36346;48.280;14.292;2023-05-01T01:20:30;15.14;;;15.14;;
50417;SDS011;36346;48.280;14.292;2023-05-01T01:25:54;15.25;;;15.24;;
50417;SDS011;36346;48.280;14.292;2023-05-01T01:28:48;13.82;;;13.79;;
50417;SDS011;36346;48.280;14.292;2023-05-01T01:34:14;11.56;;;11.56;;
50417;SDS011;36346;48.280;14.292;2023-05-01T01:37:01;11.84;;;11.84;;
50417;SDS011;36346;48.280;14.292;2023-05-01T01:39:44;12.17;;;12.17;;
50417;SDS011;36346;48.280;14.292;2023-05-01T01:42:29;11.01;;;11.01;;
50417;SDS011;36346;48.280;14.292;2023-05-01T01:45:08;10.84;;;10.84;;
50417;SDS011;36346;48.280;14.292;2023-05-01T01:47:42;11.58;;;11.58;;
50417;SDS011;36346;48.280;14.292;2023-05-01T01:50:11;13.86;;;13.86;;
50417;SDS011;36346;48.280;14.292;2023-05-01T01:52:41;14.77;;;14.74;;
50417;SDS011;36346;48.280;14.292;2023-05-01T01:55:12;14.03;;;14.03;;
50417;SDS011;36346;48.280;14.292;2023-05-01T01:57:42;13.72;;;13.71;;
50417;SDS011;36346;48.280;14.292;2023-05-01T02:00:12;13.87;;;13.86;;
50417;SDS011;36346;48.280;14.292;2023-05-01T02:02:46;14.29;;;14.27;;
50417;SDS011;36346;48.280;14.292;2023-05-01T02:05:16;13.74;;;13.73;;
50417;SDS011;36346;48.280;14.292;2023-05-01T02:07:47;13.59;;;13.54;;
50417;SDS011;36346;48.280;14.292;2023-05-01T02:10:16;12.96;;;12.96;;
50417;SDS011;36346;48.280;14.292;2023-05-01T02:12:47;12.68;;;12.67;;
50417;SDS011;36346;48.280;14.292;2023-05-01T02:15:18;13.16;;;13.14;;
50417;SDS011;36346;48.280;14.292;2023-05-01T02:17:48;12.76;;;12.75;;
50417;SDS011;36346;48.280;14.292;2023-05-01T02:20:18;11.92;;;11.91;;
50417;SDS011;36346;48.280;14.292;2023-05-01T02:22:48;12.01;;;12.01;;
50417;SDS011;36346;48.280;14.292;2023-05-01T02:25:19;13.13;;;13.11;;
50417;SDS011;36346;48.280;14.292;2023-05-01T02:27:49;12.57;;;12.57;;
50417;SDS011;36346;48.280;14.292;2023-05-01T02:30:24;12.14;;;12.13;;
50417;SDS011;36346;48.280;14.292;2023-05-01T02:32:52;12.24;;;12.22;;
50417;SDS011;36346;48.280;14.292;2023-05-01T02:35:20;12.65;;;12.64;;
50417;SDS011;36346;48.280;14.292;2023-05-01T02:37:48;12.41;;;12.41;;
50417;SDS011;36346;48.280;14.292;2023-05-01T02:40:18;11.71;;;11.68;;
50417;SDS011;36346;48.280;14.292;2023-05-01T02:42:46;11.74;;;11.71;;
50417;SDS011;36346;48.280;14.292;2023-05-01T02:45:17;11.70;;;11.69;;
50417;SDS011;36346;48.280;14.292;2023-05-01T02:47:48;11.11;;;11.10;;
50417;SDS011;36346;48.280;14.292;2023-05-01T02:50:18;10.17;;;10.17;;
50417;SDS011;36346;48.280;14.292;2023-05-01T02:52:48;10.09;;;10.09;;
50417;SDS011;36346;48.280;14.292;2023-05-01T02:55:35;8.17;;;8.17;;
50417;SDS011;36346;48.280;14.292;2023-05-01T02:58:03;8.72;;;8.71;;
50417;SDS011;36346;48.280;14.292;2023-05-01T03:00:31;8.17;;;8.17;;
50417;SDS011;36346;48.280;14.292;2023-05-01T03:02:59;9.64;;;9.63;;
50417;SDS011;36346;48.280;14.292;2023-05-01T03:05:27;9.13;;;9.13;;
50417;SDS011;36346;48.280;14.292;2023-05-01T03:07:55;8.93;;;8.93;;
50417;SDS011;36346;48.280;14.292;2023-05-01T03:10:23;9.06;;;9.06;;
50417;SDS011;36346;48.280;14.292;2023-05-01T03:12:51;8.26;;;8.26;;
50417;SDS011;36346;48.280;14.292;2023-05-01T03:15:19;8.90;;;8.90;;
50417;SDS011;36346;48.280;14.292;2023-05-01T03:17:47;9.65;;;9.65;;
50417;SDS011;36346;48.280;14.292;2023-05-01T03:20:15;10.91;;;10.90;;
50417;SDS011;36346;48.280;14.292;2023-05-01T03:22:43;11.87;;;11.85;;
50417;SDS011;36346;48.280;14.292;2023-05-01T03:25:11;11.74;;;11.74;;
50417;SDS011;36346;48.280;14.292;2023-05-01T03:27:39;12.59;;;12.58;;
50417;SDS011;36346;48.280;14.292;2023-05-01T03:30:09;12.11;;;12.10;;
50417;SDS011;36346;48.280;14.292;2023-05-01T03:32:40;11.92;;;11.91;;
50417;SDS011;36346;48.280;14.292;2023-05-01T03:35:16;12.05;;;11.98;;
50417;SDS011;36346;48.280;14.292;2023-05-01T03:37:44;12.17;;;12.17;;
50417;SDS011;36346;48.280;14.292;2023-05-01T03:40:19;12.85;;;12.85;;
50417;SDS011;36346;48.280;14.292;2023-05-01T03:43:07;12.86;;;12.86;;
50417;SDS011;36346;48.280;14.292;2023-05-01T03:45:35;13.13;;;13.13;;
50417;SDS011;36346;48.280;14.292;2023-05-01T03:48:03;13.51;;;13.50;;
50417;SDS011;36346;48.280;14.292;2023-05-01T03:50:32;14.52;;;14.52;;
50417;SDS011;36346;48.280;14.292;2023-05-01T03:53:00;13.58;;;13.57;;
50417;SDS011;36346;48.280;14.292;2023-05-01T03:55:27;13.31;;;13.30;;
50417;SDS011;36346;48.280;14.292;2023-05-01T03:57:55;13.90;;;13.86;;
50417;SDS011;36346;48.280;14.292;2023-05-01T04:00:23;12.40;;;12.39;;
50417;SDS011;36346;48.280;14.292;2023-05-01T04:02:51;12.41;;;12.41;;
50417;SDS011;36346;48.280;14.292;2023-05-01T04:05:23;10.12;;;10.12;;
50417;SDS011;36346;48.280;14.292;2023-05-01T04:07:55;8.76;;;8.76;;
50417;SDS011;36346;48.280;14.292;2023-05-01T04:10:23;7.98;;;7.98;;
50417;SDS011;36346;48.280;14.292;2023-05-01T04:12:59;7.18;;;7.18;;
50417;SDS011;36346;48.280;14.292;2023-05-01T04:15:27;7.63;;;7.63;;
50417;SDS011;36346;48.280;14.292;2023-05-01T04:17:55;7.44;;;7.44;;
50417;SDS011;36346;48.280;14.292;2023-05-01T04:20:23;6.65;;;6.65;;
50417;SDS011;36346;48.280;14.292;2023-05-01T04:22:51;6.80;;;6.80;;
50417;SDS011;36346;48.280;14.292;2023-05-01T04:25:19;7.76;;;7.76;;
50417;SDS011;36346;48.280;14.292;2023-05-01T04:27:50;7.28;;;7.28;;
50417;SDS011;36346;48.280;14.292;2023-05-01T04:30:18;7.40;;;7.38;;
50417;SDS011;36346;48.280;14.292;2023-05-01T04:32:45;7.41;;;7.40;;
50417;SDS011;36346;48.280;14.292;2023-05-01T04:35:14;8.40;;;8.39;;
50417;SDS011;36346;48.280;14.292;2023-05-01T04:37:43;9.06;;;8.98;;
50417;SDS011;36346;48.280;14.292;2023-05-01T04:40:11;8.65;;;8.59;;
50417;SDS011;36346;48.280;14.292;2023-05-01T04:42:40;9.31;;;9.23;;
50417;SDS011;36346;48.280;14.292;2023-05-01T04:45:12;8.62;;;8.58;;
50417;SDS011;36346;48.280;14.292;2023-05-01T04:47:40;8.49;;;8.44;;
50417;SDS011;36346;48.280;14.292;2023-05-01T04:50:09;7.87;;;7.83;;
50417;SDS011;36346;48.280;14.292;2023-05-01T04:52:37;8.09;;;8.08;;
50417;SDS011;36346;48.280;14.292;2023-05-01T04:55:05;8.39;;;8.35;;
50417;SDS011;36346;48.280;14.292;2023-05-01T04:57:37;8.72;;;8.68;;
50417;SDS011;36346;48.280;14.292;2023-05-01T05:00:07;8.77;;;8.76;;
50417;SDS011;36346;48.280;14.292;2023-05-01T05:02:45;8.60;;;8.58;;
50417;SDS011;36346;48.280;14.292;2023-05-01T05:05:14;8.64;;;8.62;;
50417;SDS011;36346;48.280;14.292;2023-05-01T05:07:42;8.64;;;8.63;;
50417;SDS011;36346;48.280;14.292;2023-05-01T05:10:25;8.41;;;8.41;;
50417;SDS011;36346;48.280;14.292;2023-05-01T05:13:13;8.72;;;8.72;;
50417;SDS011;36346;48.280;14.292;2023-05-01T05:15:41;8.19;;;8.18;;
50417;SDS011;36346;48.280;14.292;2023-05-01T05:18:10;7.72;;;7.71;;
50417;SDS011;36346;48.280;14.292;2023-05-01T05:20:38;8.38;;;8.37;;
50417;SDS011;36346;48.280;14.292;2023-05-01T05:23:06;8.12;;;8.12;;
50417;SDS011;36346;48.280;14.292;2023-05-01T05:25:35;7.58;;;7.58;;
50417;SDS011;36346;48.280;14.292;2023-05-01T05:28:03;6.83;;;6.83;;
50417;SDS011;36346;48.280;14.292;2023-05-01T05:30:31;7.31;;;7.30;;
50417;SDS011;36346;48.280;14.292;2023-05-01T05:32:59;7.43;;;7.40;;
50417;SDS011;36346;48.280;14.292;2023-05-01T05:35:27;6.42;;;6.41;;
50417;SDS011;36346;48.280;14.292;2023-05-01T05:37:55;7.93;;;7.92;;
50417;SDS011;36346;48.280;14.292;2023-05-01T05:40:24;9.05;;;9.00;;
50417;SDS011;36346;48.280;14.292;2023-05-01T05:42:54;10.08;;;9.97;;
50417;SDS011;36346;48.280;14.292;2023-05-01T05:45:25;9.93;;;9.84;;
50417;SDS011;36346;48.280;14.292;2023-05-01T05:47:53;9.76;;;9.64;;
50417;SDS011;36346;48.280;14.292;2023-05-01T05:50:22;9.07;;;8.91;;
50417;SDS011;36346;48.280;14.292;2023-05-01T05:52:50;8.10;;;8.02;;
50417;SDS011;36346;48.280;14.292;2023-05-01T05:55:18;7.44;;;7.42;;
50417;SDS011;36346;48.280;14.292;2023-05-01T05:57:59;7.83;;;7.80;;
50417;SDS011;36346;48.280;14.292;2023-05-01T06:00:27;8.04;;;7.99;;
50417;SDS011;36346;48.280;14.292;2023-05-01T06:02:57;8.25;;;8.19;;
50417;SDS011;36346;48.280;14.292;2023-05-01T06:05:28;8.55;;;8.51;;
50417;SDS011;36346;48.280;14.292;2023-05-01T06:07:56;8.34;;;8.31;;
50417;SDS011;36346;48.280;14.292;2023-05-01T06:10:24;8.36;;;8.33;;
50417;SDS011;36346;48.280;14.292;2023-05-01T06:12:52;7.94;;;7.94;;
50417;SDS011;36346;48.280;14.292;2023-05-01T06:15:29;7.89;;;7.87;;
50417;SDS011;36346;48.280;14.292;2023-05-01T06:17:57;7.96;;;7.96;;
50417;SDS011;36346;48.280;14.292;2023-05-01T06:20:25;8.03;;;8.03;;
50417;SDS011;36346;48.280;14.292;2023-05-01T06:22:53;7.79;;;7.78;;
50417;SDS011;36346;48.280;14.292;2023-05-01T06:25:25;7.90;;;7.89;;
50417;SDS011;36346;48.280;14.292;2023-05-01T06:27:53;7.58;;;7.58;;
50417;SDS011;36346;48.280;14.292;2023-05-01T06:30:23;7.40;;;7.40;;
50417;SDS011;36346;48.280;14.292;2023-05-01T06:32:51;7.77;;;7.77;;
50417;SDS011;36346;48.280;14.292;2023-05-01T06:35:20;7.55;;;7.55;;
50417;SDS011;36346;48.280;14.292;2023-05-01T06:37:48;7.05;;;7.05;;
50417;SDS011;36346;48.280;14.292;2023-05-01T06:40:16;6.81;;;6.81;;
50417;SDS011;36346;48.280;14.292;2023-05-01T06:42:43;6.82;;;6.82;;
50417;SDS011;36346;48.280;14.292;2023-05-01T06:45:11;7.31;;;7.30;;
50417;SDS011;36346;48.280;14.292;2023-05-01T06:47:39;8.11;;;8.10;;
50417;SDS011;36346;48.280;14.292;2023-05-01T06:50:08;7.73;;;7.68;;
50417;SDS011;36346;48.280;14.292;2023-05-01T06:52:37;8.22;;;8.14;;
50417;SDS011;36346;48.280;14.292;2023-05-01T06:55:06;9.16;;;9.11;;
50417;SDS011;36346;48.280;14.292;2023-05-01T06:57:34;8.12;;;8.08;;
50417;SDS011;36346;48.280;14.292;2023-05-01T07:00:03;7.97;;;7.92;;
50417;SDS011;36346;48.280;14.292;2023-05-01T07:02:32;7.37;;;7.32;;
50417;SDS011;36346;48.280;14.292;2023-05-01T07:05:00;6.60;;;6.56;;
50417;SDS011;36346;48.280;14.292;2023-05-01T07:07:28;7.14;;;7.12;;
50417;SDS011;36346;48.280;14.292;2023-05-01T07:09:57;7.34;;;7.30;;
50417;SDS011;36346;48.280;14.292;2023-05-01T07:12:25;7.37;;;7.31;;
50417;SDS011;36346;48.280;14.292;2023-05-01T07:14:54;7.30;;;7.21;;
50417;SDS011;36346;48.280;14.292;2023-05-01T07:17:23;7.48;;;7.41;;
50417;SDS011;36346;48.280;14.292;2023-05-01T07:19:51;6.66;;;6.61;;
50417;SDS011;36346;48.280;14.292;2023-05-01T07:22:19;7.62;;;7.58;;
50417;SDS011;36346;48.280;14.292;2023-05-01T07:24:47;7.18;;;7.14;;
50417;SDS011;36346;48.280;14.292;2023-05-01T07:27:15;7.31;;;7.25;;
50417;SDS011;36346;48.280;14.292;2023-05-01T07:29:43;6.71;;;6.71;;
50417;SDS011;36346;48.280;14.292;2023-05-01T07:32:11;6.18;;;6.18;;
50417;SDS011;36346;48.280;14.292;2023-05-01T07:34:39;5.93;;;5.93;;
50417;SDS011;36346;48.280;14.292;2023-05-01T07:37:07;5.93;;;5.93;;
50417;SDS011;36346;48.280;14.292;2023-05-01T07:39:35;5.76;;;5.75;;
50417;SDS011;36346;48.280;14.292;2023-05-01T07:42:03;5.84;;;5.84;;
50417;SDS011;36346;48.280;14.292;2023-05-01T07:44:31;5.67;;;5.67;;
50417;SDS011;36346;48.280;14.292;2023-05-01T07:47:02;5.65;;;5.65;;
50417;SDS011;36346;48.280;14.292;2023-05-01T07:49:35;6.03;;;6.03;;
50417;SDS011;36346;48.280;14.292;2023-05-01T07:52:04;5.81;;;5.81;;
50417;SDS011;36346;48.280;14.292;2023-05-01T07:54:34;5.84;;;5.84;;
50417;SDS011;36346;48.280;14.292;2023-05-01T07:57:01;5.42;;;5.42;;
50417;SDS011;36346;48.280;14.292;2023-05-01T07:59:30;5.49;;;5.49;;
50417;SDS011;36346;48.280;14.292;2023-05-01T08:01:58;5.65;;;5.65;;
50417;SDS011;36346;48.280;14.292;2023-05-01T08:04:26;6.00;;;6.00;;
50417;SDS011;36346;48.280;14.292;2023-05-01T08:06:54;5.46;;;5.46;;
50417;SDS011;36346;48.280;14.292;2023-05-01T08:09:23;5.71;;;5.71;;
50417;SDS011;36346;48.280;14.292;2023-05-01T08:11:51;5.93;;;5.93;;
50417;SDS011;36346;48.280;14.292;2023-05-01T08:14:18;6.12;;;6.12;;
50417;SDS011;36346;48.280;14.292;2023-05-01T08:16:46;6.04;;;6.04;;
50417;SDS011;36346;48.280;14.292;2023-05-01T08:19:21;5.27;;;5.27;;
50417;SDS011;36346;48.280;14.292;2023-05-01T08:21:49;5.38;;;5.38;;
50417;SDS011;36346;48.280;14.292;2023-05-01T08:24:17;5.29;;;5.29;;
50417;SDS011;36346;48.280;14.292;2023-05-01T08:26:45;4.90;;;4.90;;
50417;SDS011;36346;48.280;14.292;2023-05-01T08:29:13;5.01;;;5.01;;
50417;SDS011;36346;48.280;14.292;2023-05-01T08:31:41;5.47;;;5.47;;
50417;SDS011;36346;48.280;14.292;2023-05-01T08:34:10;6.17;;;6.17;;
50417;SDS011;36346;48.280;14.292;2023-05-01T08:36:38;6.49;;;6.49;;
50417;SDS011;36346;48.280;14.292;2023-05-01T08:39:06;6.57;;;6.57;;
50417;SDS011;36346;48.280;14.292;2023-05-01T08:41:34;6.21;;;6.21;;
50417;SDS011;36346;48.280;14.292;2023-05-01T08:44:05;6.06;;;6.02;;
50417;SDS011;36346;48.280;14.292;2023-05-01T08:49:15;5.03;;;5.03;;
50417;SDS011;36346;48.280;14.292;2023-05-01T08:51:44;5.00;;;5.00;;
50417;SDS011;36346;48.280;14.292;2023-05-01T08:54:16;5.12;;;5.12;;
50417;SDS011;36346;48.280;14.292;2023-05-01T08:56:46;4.90;;;4.90;;
50417;SDS011;36346;48.280;14.292;2023-05-01T08:59:17;4.81;;;4.81;;
50417;SDS011;36346;48.280;14.292;2023-05-01T09:01:45;5.06;;;5.06;;
50417;SDS011;36346;48.280;14.292;2023-05-01T09:04:14;4.77;;;4.77;;
50417;SDS011;36346;48.280;14.292;2023-05-01T09:06:43;5.57;;;5.56;;
50417;SDS011;36346;48.280;14.292;2023-05-01T09:09:11;4.88;;;4.87;;
50417;SDS011;36346;48.280;14.292;2023-05-01T09:11:39;4.53;;;4.53;;
50417;SDS011;36346;48.280;14.292;2023-05-01T09:14:11;4.15;;;4.15;;
50417;SDS011;36346;48.280;14.292;2023-05-01T09:16:39;4.55;;;4.55;;
50417;SDS011;36346;48.280;14.292;2023-05-01T09:19:07;4.06;;;4.06;;
50417;SDS011;36346;48.280;14.292;2023-05-01T09:21:35;4.21;;;4.21;;
50417;SDS011;36346;48.280;14.292;2023-05-01T09:24:03;3.80;;;3.80;;
50417;SDS011;36346;48.280;14.292;2023-05-01T09:26:31;5.47;;;5.47;;
50417;SDS011;36346;48.280;14.292;2023-05-01T09:29:03;5.48;;;5.48;;
50417;SDS011;36346;48.280;14.292;2023-05-01T09:31:32;4.20;;;4.19;;
50417;SDS011;36346;48.280;14.292;2023-05-01T09:34:02;6.23;;;6.23;;
50417;SDS011;36346;48.280;14.292;2023-05-01T09:36:32;3.80;;;3.80;;
50417;SDS011;36346;48.280;14.292;2023-05-01T09:39:00;3.73;;;3.73;;
50417;SDS011;36346;48.280;14.292;2023-05-01T09:41:29;3.71;;;3.71;;
50417;SDS011;36346;48.280;14.292;2023-05-01T09:44:00;3.76;;;3.76;;
50417;SDS011;36346;48.280;14.292;2023-05-01T09:46:28;4.40;;;4.40;;
50417;SDS011;36346;48.280;14.292;2023-05-01T09:49:08;32.61;;;22.48;;
50417;SDS011;36346;48.280;14.292;2023-05-01T09:51:36;6.95;;;5.23;;
50417;SDS011;36346;48.280;14.292;2023-05-01T09:54:04;4.84;;;4.42;;
50417;SDS011;36346;48.280;14.292;2023-05-01T09:56:33;4.82;;;4.69;;
50417;SDS011;36346;48.280;14.292;2023-05-01T09:59:16;4.66;;;4.66;;
50417;SDS011;36346;48.280;14.292;2023-05-01T10:01:46;4.75;;;4.75;;
50417;SDS011;36346;48.280;14.292;2023-05-01T10:04:17;4.53;;;4.53;;
50417;SDS011;36346;48.280;14.292;2023-05-01T10:06:57;4.60;;;4.60;;
50417;SDS011;36346;48.280;14.292;2023-05-01T10:09:39;4.50;;;4.50;;
50417;SDS011;36346;48.280;14.292;2023-05-01T10:12:07;5.02;;;5.02;;
50417;SDS011;36346;48.280;14.292;2023-05-01T10:14:48;4.68;;;4.68;;
50417;SDS011;36346;48.280;14.292;2023-05-01T10:17:17;5.35;;;5.35;;
50417;SDS011;36346;48.280;14.292;2023-05-01T10:19:46;4.75;;;4.75;;
50417;SDS011;36346;48.280;14.292;2023-05-01T10:22:15;4.75;;;4.75;;
50417;SDS011;36346;48.280;14.292;2023-05-01T10:24:44;4.98;;;4.98;;
50417;SDS011;36346;48.280;14.292;2023-05-01T10:27:12;4.58;;;4.58;;
50417;SDS011;36346;48.280;14.292;2023-05-01T10:29:40;4.56;;;4.56;;
50417;SDS011;36346;48.280;14.292;2023-05-01T10:32:09;5.51;;;5.51;;
50417;SDS011;36346;48.280;14.292;2023-05-01T10:34:47;5.08;;;5.08;;
50417;SDS011;36346;48.280;14.292;2023-05-01T10:37:23;6.36;;;6.36;;
50417;SDS011;36346;48.280;14.292;2023-05-01T10:39:57;5.52;;;5.52;;
50417;SDS011;36346;48.280;14.292;2023-05-01T10:42:25;6.09;;;6.09;;
50417;SDS011;36346;48.280;14.292;2023-05-01T10:44:54;5.90;;;5.90;;
50417;SDS011;36346;48.280;14.292;2023-05-01T10:47:55;6.15;;;6.15;;
50417;SDS011;36346;48.280;14.292;2023-05-01T10:50:23;5.95;;;5.95;;
50417;SDS011;36346;48.280;14.292;2023-05-01T10:55:44;4.34;;;4.34;;
50417;SDS011;36346;48.280;14.292;2023-05-01T11:09:48;4.00;;;4.00;;
50417;SDS011;36346;48.280;14.292;2023-05-01T11:15:30;4.64;;;4.64;;
50417;SDS011;36346;48.280;14.292;2023-05-01T11:18:00;3.50;;;3.50;;
50417;SDS011;36346;48.280;14.292;2023-05-01T11:23:05;4.81;;;4.81;;
50417;SDS011;36346;48.280;14.292;2023-05-01T11:25:34;4.60;;;4.60;;
50417;SDS011;36346;48.280;14.292;2023-05-01T11:28:02;3.97;;;3.97;;
50417;SDS011;36346;48.280;14.292;2023-05-01T11:30:36;3.93;;;3.93;;
50417;SDS011;36346;48.280;14.292;2023-05-01T11:33:05;4.42;;;4.42;;
50417;SDS011;36346;48.280;14.292;2023-05-01T11:35:37;4.36;;;4.36;;
50417;SDS011;36346;48.280;14.292;2023-05-01T11:38:05;4.18;;;4.18;;
50417;SDS011;36346;48.280;14.292;2023-05-01T11:40:45;4.30;;;4.30;;
50417;SDS011;36346;48.280;14.292;2023-05-01T11:43:21;4.46;;;4.46;;
50417;SDS011;36346;48.280;14.292;2023-05-01T11:45:50;4.78;;;4.78;;
50417;SDS011;36346;48.280;14.292;2023-05-01T11:48:21;4.60;;;4.60;;
50417;SDS011;36346;48.280;14.292;2023-05-01T11:50:49;4.15;;;4.15;;
50417;SDS011;36346;48.280;14.292;2023-05-01T11:53:17;3.97;;;3.97;;
50417;SDS011;36346;48.280;14.292;2023-05-01T11:55:45;4.44;;;4.44;;
50417;SDS011;36346;48.280;14.292;2023-05-01T11:58:13;4.13;;;4.13;;
50417;SDS011;36346;48.280;14.292;2023-05-01T12:00:41;4.26;;;4.26;;
50417;SDS011;36346;48.280;14.292;2023-05-01T12:03:12;6.54;;;6.54;;
50417;SDS011;36346;48.280;14.292;2023-05-01T12:05:43;5.79;;;5.79;;
50417;SDS011;36346;48.280;14.292;2023-05-01T12:08:12;4.16;;;4.16;;
50417;SDS011;36346;48.280;14.292;2023-05-01T12:10:45;4.32;;;4.32;;
50417;SDS011;36346;48.280;14.292;2023-05-01T12:13:16;4.16;;;4.16;;
50417;SDS011;36346;48.280;14.292;2023-05-01T12:15:45;3.77;;;3.77;;
50417;SDS011;36346;48.280;14.292;2023-05-01T12:18:15;4.24;;;4.24;;
50417;SDS011;36346;48.280;14.292;2023-05-01T12:20:45;3.88;;;3.88;;
50417;SDS011;36346;48.280;14.292;2023-05-01T12:23:17;3.97;;;3.97;;
50417;SDS011;36346;48.280;14.292;2023-05-01T12:25:47;4.02;;;4.02;;
50417;SDS011;36346;48.280;14.292;2023-05-01T12:28:15;4.06;;;4.06;;
50417;SDS011;36346;48.280;14.292;2023-05-01T12:30:46;4.25;;;4.25;;
50417;SDS011;36346;48.280;14.292;2023-05-01T12:33:16;4.11;;;4.11;;
50417;SDS011;36346;48.280;14.292;2023-05-01T12:35:46;4.15;;;4.15;;
50417;SDS011;36346;48.280;14.292;2023-05-01T12:38:18;4.11;;;4.11;;
50417;SDS011;36346;48.280;14.292;2023-05-01T12:40:57;4.71;;;4.71;;
50417;SDS011;36346;48.280;14.292;2023-05-01T12:45:57;4.43;;;4.43;;
50417;SDS011;36346;48.280;14.292;2023-05-01T12:48:26;3.80;;;3.80;;
50417;SDS011;36346;48.280;14.292;2023-05-01T12:50:54;3.74;;;3.74;;
50417;SDS011;36346;48.280;14.292;2023-05-01T12:53:23;3.88;;;3.88;;
50417;SDS011;36346;48.280;14.292;2023-05-01T12:55:54;3.54;;;3.54;;
50417;SDS011;36346;48.280;14.292;2023-05-01T12:58:33;3.53;;;3.53;;
50417;SDS011;36346;48.280;14.292;2023-05-01T13:01:05;3.15;;;3.15;;
50417;SDS011;36346;48.280;14.292;2023-05-01T13:03:33;3.04;;;3.04;;
50417;SDS011;36346;48.280;14.292;2023-05-01T13:06:06;3.51;;;3.51;;
50417;SDS011;36346;48.280;14.292;2023-05-01T13:08:36;3.68;;;3.68;;
50417;SDS011;36346;48.280;14.292;2023-05-01T13:11:10;4.46;;;4.46;;
50417;SDS011;36346;48.280;14.292;2023-05-01T13:13:43;3.97;;;3.97;;
50417;SDS011;36346;48.280;14.292;2023-05-01T13:16:13;3.45;;;3.45;;
50417;SDS011;36346;48.280;14.292;2023-05-01T13:21:13;4.07;;;4.07;;
50417;SDS011;36346;48.280;14.292;2023-05-01T13:23:50;3.37;;;3.37;;
50417;SDS011;36346;48.280;14.292;2023-05-01T13:28:55;3.13;;;3.13;;
50417;SDS011;36346;48.280;14.292;2023-05-01T13:31:23;3.06;;;3.06;;
50417;SDS011;36346;48.280;14.292;2023-05-01T13:33:53;2.98;;;2.98;;
50417;SDS011;36346;48.280;14.292;2023-05-01T13:36:21;2.86;;;2.86;;
50417;SDS011;36346;48.280;14.292;2023-05-01T13:38:54;2.81;;;2.81;;
50417;SDS011;36346;48.280;14.292;2023-05-01T13:41:24;2.92;;;2.92;;
50417;SDS011;36346;48.280;14.292;2023-05-01T13:43:54;3.07;;;3.07;;
50417;SDS011;36346;48.280;14.292;2023-05-01T13:46:24;3.90;;;3.90;;
50417;SDS011;36346;48.280;14.292;2023-05-01T13:48:54;4.34;;;4.34;;
50417;SDS011;36346;48.280;14.292;2023-05-01T13:51:23;3.66;;;3.66;;
50417;SDS011;36346;48.280;14.292;2023-05-01T13:53:54;3.65;;;3.65;;
50417;SDS011;36346;48.280;14.292;2023-05-01T13:56:22;3.49;;;3.49;;
50417;SDS011;36346;48.280;14.292;2023-05-01T13:58:50;3.43;;;3.43;;
50417;SDS011;36346;48.280;14.292;2023-05-01T14:01:19;2.80;;;2.80;;
50417;SDS011;36346;48.280;14.292;2023-05-01T14:03:48;3.05;;;3.05;;
50417;SDS011;36346;48.280;14.292;2023-05-01T14:06:17;3.10;;;3.10;;
50417;SDS011;36346;48.280;14.292;2023-05-01T14:08:47;3.36;;;3.36;;
50417;SDS011;36346;48.280;14.292;2023-05-01T14:11:15;2.97;;;2.97;;
50417;SDS011;36346;48.280;14.292;2023-05-01T14:13:45;3.02;;;3.02;;
50417;SDS011;36346;48.280;14.292;2023-05-01T14:16:23;3.75;;;3.75;;
50417;SDS011;36346;48.280;14.292;2023-05-01T14:18:54;3.29;;;3.29;;
50417;SDS011;36346;48.280;14.292;2023-05-01T14:21:24;3.06;;;3.06;;
50417;SDS011;36346;48.280;14.292;2023-05-01T14:23:55;3.14;;;3.14;;
50417;SDS011;36346;48.280;14.292;2023-05-01T14:26:23;4.02;;;4.02;;
50417;SDS011;36346;48.280;14.292;2023-05-01T14:28:51;3.71;;;3.71;;
50417;SDS011;36346;48.280;14.292;2023-05-01T14:31:23;3.41;;;3.41;;
50417;SDS011;36346;48.280;14.292;2023-05-01T14:33:57;3.00;;;3.00;;
50417;SDS011;36346;48.280;14.292;2023-05-01T14:36:30;3.22;;;3.22;;
50417;SDS011;36346;48.280;14.292;2023-05-01T14:39:00;3.30;;;3.30;;
50417;SDS011;36346;48.280;14.292;2023-05-01T14:41:29;3.48;;;3.48;;
50417;SDS011;36346;48.280;14.292;2023-05-01T14:43:58;2.99;;;2.99;;
50417;SDS011;36346;48.280;14.292;2023-05-01T14:46:30;2.66;;;2.66;;
50417;SDS011;36346;48.280;14.292;2023-05-01T14:49:01;2.87;;;2.87;;
50417;SDS011;36346;48.280;14.292;2023-05-01T14:51:30;2.93;;;2.93;;
50417;SDS011;36346;48.280;14.292;2023-05-01T14:53:58;2.81;;;2.81;;
50417;SDS011;36346;48.280;14.292;2023-05-01T14:56:27;2.97;;;2.97;;
50417;SDS011;36346;48.280;14.292;2023-05-01T14:58:54;2.50;;;2.50;;
50417;SDS011;36346;48.280;14.292;2023-05-01T15:01:23;2.49;;;2.49;;
50417;SDS011;36346;48.280;14.292;2023-05-01T15:03:51;2.65;;;2.65;;
50417;SDS011;36346;48.280;14.292;2023-05-01T15:06:19;2.22;;;2.22;;
50417;SDS011;36346;48.280;14.292;2023-05-01T15:08:48;2.96;;;2.96;;
50417;SDS011;36346;48.280;14.292;2023-05-01T15:11:16;2.51;;;2.51;;
50417;SDS011;36346;48.280;14.292;2023-05-01T15:13:48;2.37;;;2.37;;
50417;SDS011;36346;48.280;14.292;2023-05-01T15:16:17;2.62;;;2.62;;
50417;SDS011;36346;48.280;14.292;2023-05-01T15:18:45;2.66;;;2.66;;
50417;SDS011;36346;48.280;14.292;2023-05-01T15:21:12;2.44;;;2.44;;
50417;SDS011;36346;48.280;14.292;2023-05-01T15:23:40;2.50;;;2.50;;
50417;SDS011;36346;48.280;14.292;2023-05-01T15:26:11;2.41;;;2.41;;
50417;SDS011;36346;48.280;14.292;2023-05-01T15:28:40;2.64;;;2.64;;